Time;durP1;ratioP1;P1;durP2;ratioP2;P2;SDS_P1;SDS_P2;PMS_P1;PMS_P2;Temp;Humidity;BMP_temperature;BMP_pressure;BME280_temperature;BME280_humidity;BME280_pressure;Samples;Min_cycle;Max_cycle;Signal;HPM_P1;HPM_P2
2022/11/20 00:01:22;;;;;;;32.77;21.40;;;-2.10;99.90;;;;;;5051536;28;20237;-65
2022/11/20 00:03:48;;;;;;;35.23;21.97;;;-2.10;99.90;;;;;;5051624;28;20714;-64
2022/11/20 00:06:17;;;;;;;35.13;21.73;;;-2.20;99.90;;;;;;5051735;28;20552;-65
2022/11/20 00:08:45;;;;;;;34.90;21.93;;;-2.20;99.90;;;;;;5062975;28;20211;-64
2022/11/20 00:11:13;;;;;;;35.67;21.30;;;-2.30;99.90;;;;;;5071847;28;20234;-64
2022/11/20 00:13:42;;;;;;;36.33;22.60;;;-2.30;99.90;;;;;;5051758;28;20209;-63
2022/11/20 00:16:11;;;;;;;33.93;21.20;;;-2.30;99.90;;;;;;5051453;28;20201;-64
2022/11/20 00:18:38;;;;;;;39.07;22.73;;;-2.40;99.90;;;;;;5051517;28;20212;-63
2022/11/20 00:21:06;;;;;;;36.60;21.87;;;-2.40;99.90;;;;;;5051826;28;20251;-64
2022/11/20 00:23:33;;;;;;;35.40;20.57;;;-2.50;99.90;;;;;;5069571;28;20204;-64
2022/11/20 00:26:03;;;;;;;34.10;20.83;;;-2.50;99.90;;;;;;5071596;28;20204;-64
2022/11/20 00:28:30;;;;;;;36.10;22.07;;;-2.50;99.90;;;;;;5071474;28;20200;-63
2022/11/20 00:31:03;;;;;;;35.60;22.07;;;-2.60;99.90;;;;;;5071518;28;20221;-64
2022/11/20 00:33:30;;;;;;;37.63;23.30;;;-2.60;99.90;;;;;;5070789;28;20212;-65
2022/11/20 00:36:01;;;;;;;38.63;22.90;;;-2.70;99.90;;;;;;5071344;28;20207;-64
2022/11/20 00:38:28;;;;;;;37.87;22.40;;;-2.70;99.90;;;;;;5071483;28;20197;-64
2022/11/20 00:40:59;;;;;;;36.17;21.47;;;-2.80;99.90;;;;;;5071162;28;20228;-64
2022/11/20 00:43:26;;;;;;;31.43;19.70;;;-2.80;99.90;;;;;;5070275;28;20221;-64
2022/11/20 00:45:57;;;;;;;33.27;21.30;;;-2.80;99.90;;;;;;5073784;28;20204;-64
2022/11/20 00:48:26;;;;;;;37.10;21.60;;;-2.90;99.90;;;;;;5074983;28;20270;-65
2022/11/20 00:50:52;;;;;;;31.47;19.90;;;-2.90;99.90;;;;;;5075161;28;20278;-64
2022/11/20 00:53:19;;;;;;;32.87;20.60;;;-3.00;99.90;;;;;;5074364;28;20212;-65
2022/11/20 00:55:54;;;;;;;36.30;20.60;;;-3.00;99.90;;;;;;5074410;28;20205;-65
2022/11/20 00:58:21;;;;;;;33.00;20.33;;;-3.00;99.90;;;;;;5075130;28;20601;-63
2022/11/20 01:00:49;;;;;;;33.53;20.37;;;-3.00;99.90;;;;;;5073666;28;20237;-64
2022/11/20 01:03:16;;;;;;;34.80;20.90;;;-3.00;99.90;;;;;;5074678;28;20208;-65
2022/11/20 01:05:44;;;;;;;35.83;21.50;;;-3.00;99.90;;;;;;5074588;28;20584;-64
2022/11/20 01:08:11;;;;;;;33.90;21.93;;;-3.00;99.90;;;;;;5074559;28;20204;-63
2022/11/20 01:10:38;;;;;;;33.10;20.83;;;-3.00;99.90;;;;;;5068652;28;20202;-63
2022/11/20 01:15:49;;;;;;;34.63;21.97;;;-3.00;99.90;;;;;;5061454;28;20219;-64
2022/11/20 01:18:15;;;;;;;37.07;22.37;;;-3.00;99.90;;;;;;5074352;28;20227;-65
2022/11/20 01:20:43;;;;;;;35.03;22.80;;;-3.00;99.90;;;;;;5069106;28;20221;-64
2022/11/20 01:23:10;;;;;;;37.40;23.00;;;-3.00;99.90;;;;;;5054449;28;20276;-63
2022/11/20 01:25:37;;;;;;;36.57;22.23;;;-3.00;99.90;;;;;;5054001;28;20213;-63
2022/11/20 01:28:04;;;;;;;38.17;23.77;;;-3.00;99.90;;;;;;5054476;28;20212;-65
2022/11/20 01:30:31;;;;;;;40.77;25.00;;;-3.00;99.90;;;;;;5053741;28;20221;-63
2022/11/20 01:32:57;;;;;;;41.57;24.27;;;-2.90;99.90;;;;;;5054493;28;20577;-64
2022/11/20 01:35:24;;;;;;;38.77;24.63;;;-2.90;99.90;;;;;;5054016;28;20675;-64
2022/11/20 01:37:52;;;;;;;41.87;25.10;;;-2.90;99.90;;;;;;5054248;28;20565;-63
2022/11/20 01:40:19;;;;;;;44.23;27.00;;;-2.90;99.90;;;;;;5054902;28;20572;-64
2022/11/20 01:46:02;;;;;;;44.60;27.07;;;-2.80;99.90;;;;;;5073904;28;20219;-64
2022/11/20 01:48:33;;;;;;;51.43;29.40;;;-2.80;99.90;;;;;;5073960;28;20193;-64
2022/11/20 01:51:02;;;;;;;62.63;33.50;;;-2.80;99.90;;;;;;5068229;28;20201;-65
2022/11/20 01:53:34;;;;;;;55.23;31.93;;;-2.70;99.90;;;;;;5053442;28;20205;-63
2022/11/20 01:56:03;;;;;;;53.97;31.77;;;-2.70;99.90;;;;;;5053892;28;20553;-64
2022/11/20 01:58:34;;;;;;;59.00;32.33;;;-2.70;99.90;;;;;;5053383;28;20205;-65
2022/11/20 02:01:01;;;;;;;58.57;32.80;;;-2.70;99.90;;;;;;5058156;28;20718;-64
2022/11/20 02:03:29;;;;;;;60.53;33.07;;;-2.70;99.90;;;;;;5073685;28;20668;-64
2022/11/20 02:06:03;;;;;;;63.00;34.70;;;-2.60;99.90;;;;;;5073803;28;20652;-63
2022/11/20 02:08:32;;;;;;;58.37;32.97;;;-2.60;99.90;;;;;;5073488;28;20632;-65
2022/11/20 02:10:58;;;;;;;65.13;36.80;;;-2.60;99.90;;;;;;5068591;28;20205;-63
2022/11/20 02:13:42;;;;;;;62.60;35.53;;;-2.60;99.90;;;;;;5053543;28;20387;-64
2022/11/20 02:16:15;;;;;;;64.97;36.70;;;-2.50;99.90;;;;;;5053717;28;20185;-64
2022/11/20 02:18:42;;;;;;;53.93;30.80;;;-2.50;99.90;;;;;;5053279;28;20199;-64
2022/11/20 02:21:16;;;;;;;50.67;29.40;;;-2.40;99.90;;;;;;5058776;28;20221;-64
2022/11/20 02:24:04;;;;;;;54.10;31.43;;;-2.40;99.90;;;;;;5073420;28;20575;-65
2022/11/20 02:26:35;;;;;;;57.47;33.43;;;-2.30;99.90;;;;;;5072792;28;20219;-64
2022/11/20 02:29:03;;;;;;;64.03;37.30;;;-2.30;99.90;;;;;;5073093;28;20196;-64
2022/11/20 02:31:36;;;;;;;67.57;38.87;;;-2.20;99.90;;;;;;5060478;28;20412;-63
2022/11/20 02:34:03;;;;;;;60.70;35.03;;;-2.20;99.90;;;;;;5053185;28;20193;-64
2022/11/20 02:36:34;;;;;;;61.47;35.20;;;-2.20;99.90;;;;;;5052941;28;20205;-64
2022/11/20 02:39:02;;;;;;;61.40;34.37;;;-2.20;99.90;;;;;;5053247;28;20652;-64
2022/11/20 02:41:33;;;;;;;55.23;32.13;;;-2.10;99.90;;;;;;5052803;28;20527;-63
2022/11/20 02:44:00;;;;;;;54.40;30.80;;;-2.20;99.90;;;;;;5053123;28;20206;-64
2022/11/20 02:46:27;;;;;;;56.13;32.63;;;-2.20;99.90;;;;;;5052400;28;20209;-63
2022/11/20 02:48:54;;;;;;;51.23;29.77;;;-2.20;99.90;;;;;;5052628;28;20205;-63
2022/11/20 02:51:20;;;;;;;54.47;31.70;;;-2.20;99.90;;;;;;5060122;28;20209;-63
2022/11/20 02:53:47;;;;;;;61.77;34.60;;;-2.10;99.90;;;;;;5072588;28;20204;-64
2022/11/20 02:56:16;;;;;;;58.90;33.77;;;-2.10;99.90;;;;;;5071502;28;20211;-64
2022/11/20 02:58:43;;;;;;;61.47;32.90;;;-2.10;99.90;;;;;;5072662;28;20598;-63
2022/11/20 03:01:09;;;;;;;58.43;32.40;;;-2.10;99.90;;;;;;5044952;28;20238;-63
2022/11/20 03:03:36;;;;;;;62.40;33.67;;;-2.10;99.90;;;;;;5052725;28;20284;-64
2022/11/20 03:06:03;;;;;;;59.37;33.83;;;-2.10;99.90;;;;;;5052620;28;20205;-64
2022/11/20 03:08:30;;;;;;;62.73;33.90;;;-2.00;99.90;;;;;;5051896;28;20206;-63
2022/11/20 03:10:57;;;;;;;61.47;32.33;;;-2.00;99.90;;;;;;5052099;28;20209;-64
2022/11/20 03:13:26;;;;;;;66.03;34.70;;;-2.00;99.90;;;;;;5057980;28;20612;-65
2022/11/20 03:15:52;;;;;;;60.63;33.87;;;-2.00;99.90;;;;;;5072200;28;20570;-63
2022/11/20 03:18:19;;;;;;;63.40;34.17;;;-2.00;99.90;;;;;;5072099;28;20570;-63
2022/11/20 03:20:46;;;;;;;58.03;32.83;;;-1.90;99.90;;;;;;5072148;28;20228;-63
2022/11/20 03:23:13;;;;;;;59.87;32.70;;;-1.90;99.90;;;;;;5070791;28;20208;-64
2022/11/20 03:25:39;;;;;;;57.43;33.13;;;-1.80;99.90;;;;;;5071764;28;20212;-64
2022/11/20 03:28:06;;;;;;;56.60;32.83;;;-1.80;99.90;;;;;;5071663;28;20596;-64
2022/11/20 03:30:35;;;;;;;62.37;35.10;;;-1.80;99.90;;;;;;5072032;28;20228;-64
2022/11/20 03:33:02;;;;;;;54.13;30.90;;;-1.90;99.90;;;;;;5071097;28;20205;-64
2022/11/20 03:35:29;;;;;;;53.50;30.30;;;-1.80;99.90;;;;;;5072159;28;20582;-63
2022/11/20 03:37:55;;;;;;;55.77;32.40;;;-1.80;99.90;;;;;;5071726;28;20543;-63
2022/11/20 03:40:22;;;;;;;52.37;30.97;;;-1.80;99.90;;;;;;5071600;28;20684;-64
2022/11/20 03:42:49;;;;;;;51.47;30.50;;;-1.80;99.90;;;;;;5071316;28;20664;-63
2022/11/20 03:45:18;;;;;;;51.00;28.63;;;-1.90;99.90;;;;;;5051731;28;20591;-64
2022/11/20 03:47:46;;;;;;;48.70;29.30;;;-1.80;99.90;;;;;;5051858;28;20211;-64
2022/11/20 03:50:13;;;;;;;54.90;31.03;;;-1.80;99.90;;;;;;5051308;28;20205;-64
2022/11/20 03:52:40;;;;;;;58.87;33.60;;;-1.80;99.90;;;;;;5051676;28;20205;-64
2022/11/20 03:55:08;;;;;;;74.53;44.30;;;-1.90;99.90;;;;;;5051477;28;20216;-63
2022/11/20 03:57:35;;;;;;;66.20;35.80;;;-1.90;99.90;;;;;;5051886;28;20215;-64
2022/11/20 04:00:02;;;;;;;66.53;37.33;;;-1.90;99.90;;;;;;5050938;28;20233;-64
2022/11/20 04:02:29;;;;;;;78.30;42.27;;;-2.00;99.90;;;;;;5051422;28;20216;-65
2022/11/20 04:04:57;;;;;;;72.57;41.70;;;-2.00;99.90;;;;;;5067439;28;20211;-64
2022/11/20 04:07:23;;;;;;;75.77;42.23;;;-2.00;99.90;;;;;;5071886;28;20226;-63
2022/11/20 04:09:50;;;;;;;74.63;41.27;;;-2.00;99.90;;;;;;5071633;28;20592;-64
2022/11/20 04:12:17;;;;;;;73.20;41.23;;;-2.00;99.90;;;;;;5071465;28;20208;-65
2022/11/20 04:14:44;;;;;;;71.37;40.03;;;-2.00;99.90;;;;;;5056945;28;20205;-63
2022/11/20 04:17:11;;;;;;;67.03;39.67;;;-2.00;99.90;;;;;;5051316;28;20202;-64
2022/11/20 04:19:37;;;;;;;75.70;42.10;;;-1.90;99.90;;;;;;5051485;28;20227;-63
2022/11/20 04:22:05;;;;;;;72.77;40.93;;;-2.00;99.90;;;;;;5055222;28;20819;-63
2022/11/20 04:24:32;;;;;;;80.33;44.53;;;-1.90;99.90;;;;;;5055283;28;20213;-64
2022/11/20 04:26:59;;;;;;;89.93;48.23;;;-2.00;99.90;;;;;;5054965;28;20211;-64
2022/11/20 04:29:26;;;;;;;104.07;55.00;;;-1.90;99.90;;;;;;5055061;28;20211;-64
2022/11/20 04:31:53;;;;;;;133.47;66.23;;;-2.00;99.90;;;;;;5055267;28;20204;-64
2022/11/20 04:34:19;;;;;;;148.53;75.90;;;-2.00;99.90;;;;;;5064570;28;20255;-64
2022/11/20 04:36:46;;;;;;;151.93;77.43;;;-2.00;99.90;;;;;;5074904;28;20222;-64
2022/11/20 04:39:15;;;;;;;154.97;76.70;;;-2.00;99.90;;;;;;5074696;28;20212;-64
2022/11/20 04:41:43;;;;;;;122.77;62.50;;;-2.10;99.90;;;;;;5075156;28;20676;-64
2022/11/20 04:44:09;;;;;;;107.30;56.63;;;-2.20;99.90;;;;;;5066551;28;20676;-63
2022/11/20 04:46:38;;;;;;;93.07;50.60;;;-2.20;99.90;;;;;;5055140;28;20215;-64
2022/11/20 04:49:05;;;;;;;89.23;49.67;;;-2.20;99.90;;;;;;5054908;28;20212;-64
2022/11/20 04:51:33;;;;;;;86.37;48.73;;;-2.30;99.90;;;;;;5054946;28;20590;-64
2022/11/20 04:54:00;;;;;;;84.10;45.97;;;-2.30;99.90;;;;;;5060264;28;20204;-63
2022/11/20 04:56:28;;;;;;;73.43;43.03;;;-2.30;99.90;;;;;;5074952;28;20653;-64
2022/11/20 04:58:55;;;;;;;81.77;44.33;;;-2.20;99.90;;;;;;5074656;28;20201;-64
2022/11/20 05:01:24;;;;;;;74.53;43.17;;;-2.20;99.90;;;;;;5073752;28;20592;-64
2022/11/20 05:03:51;;;;;;;73.87;42.97;;;-2.20;99.90;;;;;;5074285;28;20200;-65
2022/11/20 05:06:21;;;;;;;78.03;45.67;;;-2.10;99.90;;;;;;5074650;28;20215;-64
2022/11/20 05:08:47;;;;;;;76.97;43.63;;;-2.10;99.90;;;;;;5074853;28;20215;-64
2022/11/20 05:11:16;;;;;;;72.43;41.77;;;-2.10;99.90;;;;;;5065787;28;20296;-65
2022/11/20 05:13:45;;;;;;;70.03;40.87;;;-2.10;99.90;;;;;;5054595;28;20208;-65
2022/11/20 05:16:13;;;;;;;77.97;45.20;;;-2.10;99.90;;;;;;5054039;28;20205;-63
2022/11/20 05:18:41;;;;;;;83.27;45.63;;;-2.10;99.90;;;;;;5054339;28;20243;-68
2022/11/20 05:21:10;;;;;;;88.87;52.07;;;-2.10;99.90;;;;;;5059178;28;20221;-67
2022/11/20 05:23:37;;;;;;;76.07;44.27;;;-2.10;99.90;;;;;;5074575;28;20204;-66
2022/11/20 05:26:04;;;;;;;73.33;43.53;;;-2.10;99.90;;;;;;5074221;28;20676;-66
2022/11/20 05:28:32;;;;;;;69.20;41.17;;;-2.20;99.90;;;;;;5074450;28;20211;-68
2022/11/20 05:31:07;;;;;;;65.83;39.87;;;-2.20;99.90;;;;;;5068572;28;20657;-67
2022/11/20 05:33:34;;;;;;;67.27;41.27;;;-2.30;99.90;;;;;;5054115;28;20190;-66
2022/11/20 05:36:01;;;;;;;70.83;42.30;;;-2.20;99.90;;;;;;5054119;28;20210;-67
2022/11/20 05:38:28;;;;;;;69.90;40.17;;;-2.20;99.90;;;;;;5054231;28;20212;-66
2022/11/20 05:40:55;;;;;;;68.57;39.80;;;-2.20;99.90;;;;;;5056751;28;20315;-66
2022/11/20 05:43:21;;;;;;;65.63;38.00;;;-2.20;99.90;;;;;;5073649;28;20205;-66
2022/11/20 05:45:53;;;;;;;81.77;47.83;;;-2.10;99.90;;;;;;5068527;28;20733;-67
2022/11/20 05:48:22;;;;;;;66.87;37.63;;;-2.10;99.90;;;;;;5053841;28;20196;-67
2022/11/20 05:50:49;;;;;;;56.10;34.27;;;-2.10;99.90;;;;;;5053251;28;20205;-66
2022/11/20 05:53:15;;;;;;;56.77;35.43;;;-2.10;99.90;;;;;;5054022;28;20209;-67
2022/11/20 05:55:42;;;;;;;58.67;36.53;;;-2.10;99.90;;;;;;5053894;28;20201;-66
2022/11/20 05:58:09;;;;;;;58.10;35.73;;;-2.00;99.90;;;;;;5053899;28;20209;-67
2022/11/20 06:00:36;;;;;;;57.43;36.13;;;-1.90;99.90;;;;;;5053272;28;20243;-67
2022/11/20 06:03:03;;;;;;;57.40;36.17;;;-1.90;99.90;;;;;;5056862;28;20569;-69
2022/11/20 06:05:31;;;;;;;53.83;34.63;;;-1.80;99.90;;;;;;5079349;28;20207;-67
2022/11/20 06:07:58;;;;;;;56.93;33.43;;;-1.70;99.90;;;;;;5082398;28;20211;-67
2022/11/20 06:10:25;;;;;;;57.63;35.10;;;-1.70;99.90;;;;;;5081408;28;20657;-66
2022/11/20 06:12:51;;;;;;;52.47;33.37;;;-1.60;99.90;;;;;;5081533;28;20689;-67
2022/11/20 06:15:18;;;;;;;53.30;32.83;;;-1.50;99.90;;;;;;5076924;28;20362;-64
2022/11/20 06:17:45;;;;;;;54.80;33.57;;;-1.40;99.90;;;;;;5052673;28;20292;-64
2022/11/20 06:20:12;;;;;;;53.20;32.87;;;-1.40;99.90;;;;;;5052952;28;20209;-63
2022/11/20 06:22:40;;;;;;;52.40;32.43;;;-1.40;99.90;;;;;;5066751;28;20229;-64
2022/11/20 06:25:07;;;;;;;53.57;34.53;;;-1.30;99.90;;;;;;5073133;28;20628;-64
2022/11/20 06:27:34;;;;;;;55.93;33.47;;;-1.30;99.90;;;;;;5074650;28;20196;-64
2022/11/20 06:30:01;;;;;;;51.57;32.77;;;-1.30;99.90;;;;;;5074700;28;20314;-65
2022/11/20 06:32:28;;;;;;;56.47;34.40;;;-1.20;99.90;;;;;;5082398;28;20220;-65
2022/11/20 06:34:55;;;;;;;53.30;33.03;;;-1.30;99.90;;;;;;5077001;28;20200;-66
2022/11/20 06:37:21;;;;;;;51.63;32.00;;;-1.20;99.90;;;;;;5081036;28;20197;-65
2022/11/20 06:39:49;;;;;;;50.83;31.73;;;-1.20;99.90;;;;;;5081920;28;20216;-64
2022/11/20 06:42:16;;;;;;;51.30;32.43;;;-1.20;99.90;;;;;;5079118;28;20567;-64
2022/11/20 06:44:43;;;;;;;51.60;33.17;;;-1.20;99.90;;;;;;5081059;28;20287;-65
2022/11/20 06:47:10;;;;;;;56.53;35.30;;;-1.20;99.90;;;;;;5079678;28;20218;-65
2022/11/20 06:49:38;;;;;;;55.13;35.47;;;-1.20;99.90;;;;;;5081737;28;20212;-67
2022/11/20 06:52:05;;;;;;;58.57;35.10;;;-1.20;99.90;;;;;;5078347;28;20606;-65
2022/11/20 06:54:32;;;;;;;62.00;37.83;;;-1.10;99.90;;;;;;5079768;28;20201;-64
2022/11/20 06:57:00;;;;;;;62.10;37.17;;;-1.10;99.90;;;;;;5081152;28;20204;-64
2022/11/20 06:59:26;;;;;;;66.93;39.77;;;-1.00;99.90;;;;;;5081517;28;20627;-63
2022/11/20 07:01:53;;;;;;;63.77;39.10;;;-1.00;99.90;;;;;;5074698;28;20234;-63
2022/11/20 07:04:20;;;;;;;65.97;38.83;;;-0.90;99.90;;;;;;5080518;28;20205;-65
2022/11/20 07:06:47;;;;;;;67.97;38.60;;;-0.90;99.90;;;;;;5077699;28;20642;-67
2022/11/20 07:09:14;;;;;;;67.77;40.23;;;-0.90;99.90;;;;;;5072300;28;20224;-66
2022/11/20 07:11:40;;;;;;;73.17;43.67;;;-0.90;99.90;;;;;;5080514;28;20202;-67
2022/11/20 07:14:09;;;;;;;67.70;39.73;;;-0.90;99.90;;;;;;5074660;28;20208;-67
2022/11/20 07:16:35;;;;;;;67.60;39.53;;;-0.90;99.90;;;;;;5078009;28;20220;-67
2022/11/20 07:19:02;;;;;;;62.83;37.63;;;-0.80;99.90;;;;;;5076922;28;20283;-66
2022/11/20 07:21:29;;;;;;;59.63;36.30;;;-0.80;99.90;;;;;;5081527;28;20597;-65
2022/11/20 07:23:56;;;;;;;57.00;34.50;;;-0.90;99.90;;;;;;5088375;28;20200;-66
2022/11/20 07:26:23;;;;;;;50.83;30.23;;;-0.90;99.90;;;;;;5077695;28;20239;-66
2022/11/20 07:28:49;;;;;;;44.17;27.77;;;-0.90;99.90;;;;;;5080622;28;20201;-64
2022/11/20 07:31:17;;;;;;;45.70;28.60;;;-0.90;99.90;;;;;;5083124;28;20215;-66
2022/11/20 07:33:44;;;;;;;44.53;26.87;;;-0.90;99.90;;;;;;5080077;28;20196;-65
2022/11/20 07:36:11;;;;;;;44.87;28.03;;;-0.80;99.90;;;;;;5076592;28;20206;-66
2022/11/20 07:38:38;;;;;;;43.50;27.10;;;-0.80;99.90;;;;;;5081235;28;20214;-65
2022/11/20 07:41:05;;;;;;;42.03;27.30;;;-0.80;99.90;;;;;;5076157;28;20237;-66
2022/11/20 07:43:32;;;;;;;51.77;33.03;;;-0.80;99.90;;;;;;5080229;28;20307;-64
2022/11/20 07:45:59;;;;;;;42.40;26.53;;;-0.80;99.90;;;;;;5074464;28;20241;-65
2022/11/20 07:48:28;;;;;;;40.97;26.00;;;-0.70;99.90;;;;;;5080405;28;20226;-65
2022/11/20 07:50:55;;;;;;;41.03;27.10;;;-0.70;99.90;;;;;;5073304;28;20291;-65
2022/11/20 07:53:22;;;;;;;43.60;28.40;;;-0.70;99.90;;;;;;5076403;28;20288;-64
2022/11/20 07:55:50;;;;;;;42.20;26.33;;;-0.60;99.90;;;;;;5071193;28;20221;-66
2022/11/20 07:58:16;;;;;;;38.97;25.00;;;-0.50;99.90;;;;;;5051620;28;20639;-65
2022/11/20 08:00:43;;;;;;;37.73;24.80;;;-0.50;99.90;;;;;;5058460;28;20234;-65
2022/11/20 08:03:10;;;;;;;40.87;25.87;;;-0.50;99.90;;;;;;5055741;28;20233;-66
2022/11/20 08:05:38;;;;;;;40.67;25.17;;;-0.60;99.90;;;;;;5073745;28;20660;-64
2022/11/20 08:08:06;;;;;;;35.83;23.77;;;-0.60;99.90;;;;;;5067380;28;20209;-64
2022/11/20 08:10:33;;;;;;;38.20;24.63;;;-0.60;99.90;;;;;;5051208;28;20288;-65
2022/11/20 08:15:49;;;;;;;39.17;25.67;;;-0.50;99.90;;;;;;5051213;28;20310;-65
2022/11/20 08:18:17;;;;;;;42.43;25.00;;;-0.50;99.90;;;;;;5072292;28;20258;-66
2022/11/20 08:20:45;;;;;;;40.13;24.60;;;-0.50;99.90;;;;;;5071071;28;20223;-64
2022/11/20 08:23:13;;;;;;;38.37;24.30;;;-0.50;99.90;;;;;;5071294;28;20696;-64
2022/11/20 08:25:40;;;;;;;39.00;23.27;;;-0.50;99.90;;;;;;5069416;28;20204;-65
2022/11/20 08:28:09;;;;;;;35.47;23.53;;;-0.50;99.90;;;;;;5071559;28;20536;-66
2022/11/20 08:30:37;;;;;;;36.10;22.77;;;-0.50;99.90;;;;;;5071051;28;20218;-66
2022/11/20 08:33:06;;;;;;;37.03;21.93;;;-0.50;99.90;;;;;;5067450;28;20563;-67
2022/11/20 08:35:34;;;;;;;39.30;24.67;;;-0.50;99.90;;;;;;5065484;28;20664;-67
2022/11/20 08:38:03;;;;;;;34.63;23.53;;;-0.50;99.90;;;;;;5082550;28;20712;-67
2022/11/20 08:40:30;;;;;;;36.30;23.80;;;-0.40;99.90;;;;;;5088920;28;20596;-67
2022/11/20 08:42:56;;;;;;;38.77;24.07;;;-0.30;99.90;;;;;;5075581;28;20318;-65
2022/11/20 08:45:23;;;;;;;36.67;23.30;;;-0.30;99.90;;;;;;5065962;28;20203;-67
2022/11/20 08:47:50;;;;;;;37.63;22.87;;;-0.30;99.90;;;;;;5066951;28;20217;-63
2022/11/20 08:50:18;;;;;;;33.70;22.70;;;-0.30;99.90;;;;;;5068335;28;20208;-65
2022/11/20 08:52:45;;;;;;;33.73;22.20;;;-0.20;99.90;;;;;;5067404;28;20224;-65
2022/11/20 08:55:13;;;;;;;38.27;24.53;;;-0.20;99.90;;;;;;5069898;28;20203;-66
2022/11/20 08:57:40;;;;;;;35.63;23.27;;;-0.20;99.90;;;;;;5069582;28;20204;-65
2022/11/20 09:00:09;;;;;;;34.53;22.53;;;-0.20;99.90;;;;;;5071878;28;20606;-64
2022/11/20 09:02:36;;;;;;;36.87;24.10;;;-0.20;99.90;;;;;;5076349;28;20327;-65
2022/11/20 09:05:03;;;;;;;35.97;23.07;;;-0.20;99.90;;;;;;5076801;28;20200;-67
2022/11/20 09:07:31;;;;;;;33.50;21.87;;;-0.10;99.90;;;;;;5078634;28;20201;-64
2022/11/20 09:09:57;;;;;;;35.77;24.03;;;-0.10;99.90;;;;;;5082093;28;20200;-65
2022/11/20 09:12:25;;;;;;;37.03;24.27;;;-0.10;99.90;;;;;;5077925;28;20203;-63
2022/11/20 09:14:52;;;;;;;35.23;22.93;;;-0.10;99.90;;;;;;5073986;28;20235;-64
2022/11/20 09:17:20;;;;;;;37.70;24.30;;;-0.10;99.90;;;;;;5081252;28;20254;-62
2022/11/20 09:19:47;;;;;;;35.30;23.00;;;-0.10;99.90;;;;;;5083274;28;20664;-64
2022/11/20 09:22:13;;;;;;;35.20;25.03;;;-0.10;99.90;;;;;;5082965;28;20695;-65
2022/11/20 09:24:41;;;;;;;38.23;25.70;;;-0.10;99.90;;;;;;5074732;28;20207;-66
2022/11/20 09:27:08;;;;;;;43.17;26.60;;;-0.10;99.90;;;;;;5077565;28;20327;-67
2022/11/20 09:29:36;;;;;;;40.47;26.10;;;0.00;99.90;;;;;;5079595;28;20201;-66
2022/11/20 09:32:03;;;;;;;39.07;26.10;;;0.00;99.90;;;;;;5072083;28;20201;-66
2022/11/20 09:34:30;;;;;;;35.00;24.07;;;0.00;99.90;;;;;;5074247;28;20211;-66
2022/11/20 09:36:56;;;;;;;32.83;22.13;;;0.10;99.90;;;;;;5074100;28;20211;-65
2022/11/20 09:39:23;;;;;;;33.17;23.17;;;0.00;99.90;;;;;;5073508;28;20209;-64
2022/11/20 09:42:14;;;;;;;35.73;23.47;;;-0.10;99.90;;;;;;5073883;28;20274;-66
2022/11/20 09:45:12;;;;;;;33.33;22.50;;;-0.10;99.90;;;;;;5057845;28;20201;-64
2022/11/20 09:47:54;;;;;;;33.30;21.63;;;-0.10;99.90;;;;;;5059314;28;20202;-63
2022/11/20 09:50:30;;;;;;;29.27;21.77;;;-0.10;99.90;;;;;;5073687;28;20614;-65
2022/11/20 09:53:12;;;;;;;33.93;21.57;;;-0.20;99.90;;;;;;5063339;28;20536;-65
2022/11/20 09:55:39;;;;;;;30.80;22.20;;;-0.10;99.90;;;;;;5060030;28;20207;-64
2022/11/20 09:58:08;;;;;;;34.37;21.87;;;-0.20;99.90;;;;;;5073911;28;20205;-66
2022/11/20 10:00:37;;;;;;;35.77;22.77;;;-0.10;99.90;;;;;;5073323;28;20232;-65
2022/11/20 10:03:12;;;;;;;34.57;22.60;;;-0.20;99.90;;;;;;5073283;28;20232;-65
2022/11/20 10:05:45;;;;;;;30.53;21.20;;;-0.20;99.90;;;;;;5071719;28;20284;-65
2022/11/20 10:08:18;;;;;;;32.47;22.60;;;-0.20;99.90;;;;;;5073545;28;20188;-65
2022/11/20 10:10:48;;;;;;;35.77;23.53;;;-0.10;99.90;;;;;;5073505;28;20193;-65
2022/11/20 10:13:26;;;;;;;42.60;26.93;;;-0.10;99.90;;;;;;5073317;28;20234;-65
2022/11/20 10:16:09;;;;;;;39.50;24.83;;;0.00;99.90;;;;;;5076046;28;20210;-65
2022/11/20 10:18:49;;;;;;;38.23;25.57;;;-0.10;99.90;;;;;;5088357;28;20203;-65
2022/11/20 10:21:27;;;;;;;33.83;22.90;;;0.00;99.90;;;;;;5069448;28;20204;-65
2022/11/20 10:24:31;;;;;;;34.03;23.27;;;0.00;99.90;;;;;;5073525;28;20629;-65
2022/11/20 10:27:07;;;;;;;36.10;24.23;;;0.00;99.90;;;;;;5072745;28;20189;-65
2022/11/20 10:29:35;;;;;;;35.67;23.60;;;0.10;99.90;;;;;;5072007;28;20189;-64
2022/11/20 10:32:10;;;;;;;37.53;24.87;;;0.00;99.90;;;;;;5052964;28;20201;-64
2022/11/20 10:34:47;;;;;;;35.87;24.27;;;0.10;99.90;;;;;;5053256;28;20760;-67
2022/11/20 10:37:18;;;;;;;35.37;23.87;;;0.10;99.90;;;;;;5052900;28;20633;-67
2022/11/20 10:39:51;;;;;;;37.97;24.93;;;0.20;99.90;;;;;;5055090;28;20211;-65
2022/11/20 10:42:27;;;;;;;41.67;26.20;;;0.20;99.90;;;;;;5072664;28;20573;-66
2022/11/20 10:45:02;;;;;;;36.97;24.37;;;0.20;99.90;;;;;;5071982;28;20295;-66
2022/11/20 10:47:32;;;;;;;37.23;25.53;;;0.20;99.90;;;;;;5062850;28;20695;-65
2022/11/20 10:50:04;;;;;;;35.83;24.30;;;0.20;99.90;;;;;;5052730;28;20208;-66
2022/11/20 10:52:38;;;;;;;34.37;24.43;;;0.20;99.90;;;;;;5052724;28;20247;-66
2022/11/20 10:55:26;;;;;;;31.90;22.77;;;0.30;99.90;;;;;;5052694;28;20193;-66
2022/11/20 10:57:56;;;;;;;36.07;24.13;;;0.20;99.90;;;;;;5052658;28;20795;-65
2022/11/20 11:00:24;;;;;;;35.83;24.90;;;0.20;99.90;;;;;;5052083;28;20248;-66
2022/11/20 11:02:54;;;;;;;36.83;24.77;;;0.20;99.90;;;;;;5056035;28;20229;-66
2022/11/20 11:05:34;;;;;;;37.03;24.47;;;0.20;99.90;;;;;;5063018;28;20213;-64
2022/11/20 11:08:01;;;;;;;39.30;25.63;;;0.20;99.90;;;;;;5072346;28;20217;-66
2022/11/20 11:10:36;;;;;;;36.20;25.57;;;0.20;99.90;;;;;;5072140;28;20201;-66
2022/11/20 11:13:03;;;;;;;37.73;25.10;;;0.20;99.90;;;;;;5072438;28;20275;-66
2022/11/20 11:15:37;;;;;;;36.10;24.83;;;0.20;99.90;;;;;;5070179;28;20212;-66
2022/11/20 11:18:05;;;;;;;42.60;26.90;;;0.20;99.90;;;;;;5077930;28;20193;-68
2022/11/20 11:20:32;;;;;;;36.77;24.87;;;0.20;99.90;;;;;;5089335;28;20204;-69
2022/11/20 11:23:00;;;;;;;36.33;25.23;;;0.10;99.90;;;;;;5071896;28;20497;-68
2022/11/20 11:25:30;;;;;;;37.50;26.63;;;0.10;99.90;;;;;;5071560;28;20212;-68
2022/11/20 11:28:00;;;;;;;39.28;27.02;;;0.10;99.90;;;;;;5070137;28;20434;-67
2022/11/20 11:30:29;;;;;;;37.97;25.90;;;0.10;99.90;;;;;;5069207;28;20292;-66
2022/11/20 11:33:10;;;;;;;34.57;24.50;;;0.10;99.90;;;;;;5066529;28;20254;-68
2022/11/20 11:35:45;;;;;;;35.70;24.87;;;0.10;99.90;;;;;;5075236;28;20197;-65
2022/11/20 11:38:15;;;;;;;37.10;25.23;;;0.10;99.90;;;;;;5081082;28;20196;-65
2022/11/20 11:40:43;;;;;;;33.20;23.17;;;0.10;99.90;;;;;;5071887;28;20551;-64
2022/11/20 11:46:07;;;;;;;34.97;23.47;;;0.10;99.90;;;;;;5071193;28;20188;-65
2022/11/20 11:48:35;;;;;;;34.93;24.53;;;0.10;99.90;;;;;;5067930;28;20218;-66
2022/11/20 11:51:02;;;;;;;42.83;27.13;;;0.00;99.90;;;;;;5069453;28;20212;-65
2022/11/20 11:53:29;;;;;;;48.27;31.87;;;0.00;99.90;;;;;;5072437;28;20629;-66
2022/11/20 11:56:04;;;;;;;52.80;33.63;;;0.00;99.90;;;;;;5070173;28;20204;-64
2022/11/20 11:58:42;;;;;;;48.93;32.40;;;0.00;99.90;;;;;;5071222;28;20205;-64
2022/11/20 12:01:18;;;;;;;57.07;36.20;;;0.10;99.90;;;;;;5077574;28;20284;-66
2022/11/20 12:03:55;;;;;;;44.17;29.70;;;0.00;99.90;;;;;;5072061;28;20208;-65
2022/11/20 12:06:21;;;;;;;43.97;29.73;;;0.10;99.90;;;;;;5073314;28;20211;-65
2022/11/20 12:08:52;;;;;;;43.63;29.20;;;0.00;99.90;;;;;;5069277;28;20200;-64
2022/11/20 12:11:25;;;;;;;46.77;31.47;;;0.00;99.90;;;;;;5054175;28;20227;-64
2022/11/20 12:14:01;;;;;;;47.90;30.93;;;0.00;99.90;;;;;;5050884;28;20186;-63
2022/11/20 12:16:28;;;;;;;46.30;30.70;;;0.00;99.90;;;;;;5051658;28;20779;-65
2022/11/20 12:18:57;;;;;;;42.47;29.30;;;0.10;99.90;;;;;;5051215;28;20219;-65
2022/11/20 12:21:31;;;;;;;44.07;29.73;;;0.10;99.90;;;;;;5051325;28;20225;-64
2022/11/20 12:24:11;;;;;;;40.67;28.70;;;0.00;99.90;;;;;;5051534;28;20212;-65
2022/11/20 12:26:53;;;;;;;38.60;27.30;;;0.00;99.90;;;;;;5051621;28;20196;-64
2022/11/20 12:29:31;;;;;;;41.40;27.43;;;-0.10;99.90;;;;;;5051308;28;20186;-65
2022/11/20 12:32:18;;;;;;;39.63;27.00;;;-0.10;99.90;;;;;;5051271;28;20193;-65
2022/11/20 12:34:58;;;;;;;40.43;27.13;;;-0.20;99.90;;;;;;5051256;28;20602;-64
2022/11/20 12:37:38;;;;;;;43.87;28.80;;;-0.20;99.90;;;;;;5051188;28;20548;-64
2022/11/20 12:40:18;;;;;;;45.27;28.27;;;-0.20;99.90;;;;;;5051324;28;20190;-65
2022/11/20 12:46:07;;;;;;;40.90;28.47;;;-0.20;99.90;;;;;;5055092;28;20263;-64
2022/11/20 12:48:51;;;;;;;45.70;29.63;;;-0.20;99.90;;;;;;5055425;28;20203;-65
2022/11/20 12:51:48;;;;;;;42.60;28.17;;;-0.20;99.90;;;;;;5054879;28;20199;-64
2022/11/20 12:54:56;;;;;;;41.80;26.97;;;-0.20;99.90;;;;;;5055046;28;20189;-64